Time;durP1;ratioP1;P1;durP2;ratioP2;P2;SDS_P1;SDS_P2;PMS_P1;PMS_P2;Temp;Humidity;BMP_temperature;BMP_pressure;BME280_temperature;BME280_humidity;BME280_pressure;Samples;Min_cycle;Max_cycle;Signal;HPM_P1;HPM_P2
2024/01/06 06:00:18;;;;;;;4.33;2.20;;;;;;;;;;1748180;28;20714;-77
2024/01/06 06:01:09;;;;;;;2.63;1.65;;;;;;;;;;1741880;28;20211;-77
2024/01/06 06:02:01;;;;;;;2.92;1.85;;;;;;;;;;1741028;28;20215;-77
2024/01/06 06:02:53;;;;;;;3.38;2.15;;;;;;;;;;1745519;28;20206;-77
2024/01/06 06:03:44;;;;;;;4.22;2.00;;;;;;;;;;1748134;28;20206;-77
2024/01/06 06:04:35;;;;;;;2.50;1.95;;;;;;;;;;1743357;28;20202;-77
2024/01/06 06:05:28;;;;;;;3.60;1.95;;;;;;;;;;1741202;28;20210;-77
2024/01/06 06:06:19;;;;;;;2.60;1.88;;;;;;;;;;1742625;28;20245;-77
2024/01/06 06:07:11;;;;;;;2.13;1.92;;;;;;;;;;1747957;28;20410;-77
2024/01/06 06:08:03;;;;;;;2.75;1.98;;;;;;;;;;1748028;28;20199;-77
2024/01/06 06:08:54;;;;;;;4.78;2.97;;;;;;;;;;1747180;28;20289;-77
2024/01/06 06:09:47;;;;;;;4.30;2.25;;;;;;;;;;1747941;28;20260;-77
2024/01/06 06:10:51;;;;;;;4.45;2.85;;;;;;;;;;1742413;28;20616;-77
2024/01/06 06:11:43;;;;;;;4.55;2.58;;;;;;;;;;1741087;28;20202;-77
2024/01/06 06:12:34;;;;;;;2.70;2.42;;;;;;;;;;1747088;28;20635;-77
2024/01/06 06:13:26;;;;;;;4.13;2.92;;;;;;;;;;1747932;28;20202;-77
2024/01/06 06:14:18;;;;;;;4.70;3.08;;;;;;;;;;1743696;28;20757;-77
2024/01/06 06:15:09;;;;;;;7.85;3.40;;;;;;;;;;1741023;28;20230;-77
2024/01/06 06:16:01;;;;;;;6.60;3.42;;;;;;;;;;1743884;28;20210;-77
2024/01/06 06:16:54;;;;;;;5.75;3.58;;;;;;;;;;1747891;28;20202;-77
2024/01/06 06:17:46;;;;;;;7.93;3.55;;;;;;;;;;1746344;28;20225;-77
2024/01/06 06:18:37;;;;;;;6.40;3.42;;;;;;;;;;1740984;28;20217;-77
2024/01/06 06:19:29;;;;;;;6.05;3.40;;;;;;;;;;1740231;28;20226;-77
2024/01/06 06:20:20;;;;;;;4.32;2.95;;;;;;;;;;1741200;28;20203;-77
2024/01/06 06:21:11;;;;;;;5.30;3.42;;;;;;;;;;1742072;28;20191;-77
2024/01/06 06:22:03;;;;;;;4.55;3.58;;;;;;;;;;1746436;28;20305;-77
2024/01/06 06:22:54;;;;;;;6.03;3.40;;;;;;;;;;1744691;28;20195;-77
2024/01/06 06:23:45;;;;;;;6.78;3.90;;;;;;;;;;1744960;28;20624;-77
2024/01/06 06:24:37;;;;;;;6.80;4.38;;;;;;;;;;1747867;28;20200;-77
2024/01/06 06:25:28;;;;;;;5.78;3.55;;;;;;;;;;1747978;28;20206;-77
2024/01/06 06:26:19;;;;;;;5.18;3.80;;;;;;;;;;1748031;28;20198;-78
2024/01/06 06:27:11;;;;;;;6.93;3.50;;;;;;;;;;1747247;28;20411;-77
2024/01/06 06:28:03;;;;;;;3.45;2.90;;;;;;;;;;1741039;28;20203;-77
2024/01/06 06:28:55;;;;;;;4.65;3.03;;;;;;;;;;1740215;28;20194;-77
2024/01/06 06:29:47;;;;;;;7.35;3.50;;;;;;;;;;1747271;28;20202;-77
2024/01/06 06:30:38;;;;;;;4.60;3.30;;;;;;;;;;1748012;28;20198;-77
2024/01/06 06:31:31;;;;;;;4.25;2.85;;;;;;;;;;1743826;28;20191;-77
2024/01/06 06:32:22;;;;;;;5.32;3.20;;;;;;;;;;1741094;28;20695;-77
2024/01/06 06:33:13;;;;;;;8.05;3.05;;;;;;;;;;1744378;28;20194;-77
2024/01/06 06:34:05;;;;;;;4.47;2.50;;;;;;;;;;1747963;28;20256;-77
2024/01/06 06:34:56;;;;;;;3.28;2.40;;;;;;;;;;1747458;28;20205;-77
2024/01/06 06:35:48;;;;;;;2.53;2.08;;;;;;;;;;1747846;28;20252;-77
2024/01/06 06:36:39;;;;;;;2.55;2.25;;;;;;;;;;1747537;28;20206;-77
2024/01/06 06:37:32;;;;;;;3.80;2.55;;;;;;;;;;1740995;28;20264;-77
2024/01/06 06:38:23;;;;;;;4.20;2.35;;;;;;;;;;1741108;28;20663;-77
2024/01/06 06:39:14;;;;;;;4.32;2.25;;;;;;;;;;1746009;28;20214;-77
2024/01/06 06:40:07;;;;;;;2.67;2.45;;;;;;;;;;1747958;28;20209;-77
2024/01/06 06:40:58;;;;;;;4.70;2.80;;;;;;;;;;1747986;28;20214;-77
2024/01/06 06:41:50;;;;;;;4.70;3.15;;;;;;;;;;1747829;28;20619;-77
2024/01/06 06:42:41;;;;;;;5.43;3.35;;;;;;;;;;1744959;28;20242;-77
2024/01/06 06:43:33;;;;;;;3.95;3.35;;;;;;;;;;1740971;28;20198;-77
2024/01/06 06:44:24;;;;;;;6.20;3.88;;;;;;;;;;1742284;28;20577;-77
2024/01/06 06:45:16;;;;;;;4.47;3.10;;;;;;;;;;1747348;28;20198;-77
2024/01/06 06:46:07;;;;;;;5.68;3.60;;;;;;;;;;1740929;28;20225;-77
2024/01/06 06:47:00;;;;;;;4.78;3.05;;;;;;;;;;1747853;28;20203;-76
2024/01/06 06:47:52;;;;;;;5.78;3.58;;;;;;;;;;1742803;28;20198;-77
2024/01/06 06:48:43;;;;;;;3.63;3.20;;;;;;;;;;1746506;28;20667;-77
2024/01/06 06:49:34;;;;;;;5.50;3.30;;;;;;;;;;1747250;28;20202;-77
2024/01/06 06:50:26;;;;;;;6.40;3.38;;;;;;;;;;1747769;28;20205;-77
2024/01/06 06:51:18;;;;;;;4.75;3.22;;;;;;;;;;1747649;28;20207;-77
2024/01/06 06:52:12;;;;;;;5.70;3.83;;;;;;;;;;1745332;28;20775;-77
2024/01/06 06:53:03;;;;;;;5.38;3.75;;;;;;;;;;1740997;28;20195;-77
2024/01/06 06:53:54;;;;;;;5.50;3.53;;;;;;;;;;1742020;28;20286;-77
2024/01/06 06:54:48;;;;;;;5.65;4.65;;;;;;;;;;1747807;28;20260;-77
2024/01/06 06:55:40;;;;;;;4.68;3.20;;;;;;;;;;1747832;28;20225;-77
2024/01/06 06:56:31;;;;;;;5.05;3.10;;;;;;;;;;1740974;28;20683;-77
2024/01/06 06:57:23;;;;;;;5.25;3.75;;;;;;;;;;1740892;28;20191;-77
2024/01/06 06:58:15;;;;;;;7.53;4.38;;;;;;;;;;1746428;28;20211;-77
2024/01/06 06:59:07;;;;;;;5.55;3.80;;;;;;;;;;1747071;28;20226;-77
2024/01/06 06:59:58;;;;;;;4.82;3.17;;;;;;;;;;1743732;28;20231;-77
2024/01/06 07:00:49;;;;;;;6.72;3.75;;;;;;;;;;1740960;28;20199;-77
2024/01/06 07:01:41;;;;;;;4.53;3.05;;;;;;;;;;1741028;28;20206;-77
2024/01/06 07:02:33;;;;;;;5.78;3.10;;;;;;;;;;1741000;28;20202;-77
2024/01/06 07:03:26;;;;;;;3.30;3.00;;;;;;;;;;1741956;28;20214;-77
2024/01/06 07:04:17;;;;;;;15.10;3.72;;;;;;;;;;1747957;28;20233;-77
2024/01/06 07:05:09;;;;;;;6.10;3.20;;;;;;;;;;1747788;28;20203;-77
2024/01/06 07:06:00;;;;;;;7.03;2.97;;;;;;;;;;1747857;28;20769;-77
2024/01/06 07:06:52;;;;;;;4.50;2.75;;;;;;;;;;1747869;28;20623;-77
2024/01/06 07:07:46;;;;;;;4.00;2.63;;;;;;;;;;1742677;28;20207;-77
2024/01/06 07:08:38;;;;;;;5.35;3.13;;;;;;;;;;1742169;28;20199;-77
2024/01/06 07:09:30;;;;;;;3.85;2.90;;;;;;;;;;1745439;28;20241;-77
2024/01/06 07:10:21;;;;;;;5.63;3.63;;;;;;;;;;1749198;28;20205;-77
2024/01/06 07:11:14;;;;;;;4.70;4.15;;;;;;;;;;1746576;28;20199;-77
2024/01/06 07:12:07;;;;;;;5.57;3.15;;;;;;;;;;1742178;28;20344;-77
2024/01/06 07:12:58;;;;;;;5.97;4.30;;;;;;;;;;1743502;28;20202;-77
2024/01/06 07:13:50;;;;;;;7.03;4.40;;;;;;;;;;1749042;28;20361;-77
2024/01/06 07:14:42;;;;;;;6.43;4.90;;;;;;;;;;1749035;28;20205;-77
2024/01/06 07:15:33;;;;;;;5.80;4.80;;;;;;;;;;1742026;28;20210;-77
2024/01/06 07:16:25;;;;;;;8.35;6.78;;;;;;;;;;1742193;28;20622;-77
2024/01/06 07:17:16;;;;;;;7.82;6.18;;;;;;;;;;1747496;28;20584;-77
2024/01/06 07:18:10;;;;;;;9.82;7.40;;;;;;;;;;1746642;28;20662;-77
2024/01/06 07:19:01;;;;;;;6.30;5.13;;;;;;;;;;1745417;28;20211;-77
2024/01/06 07:19:53;;;;;;;9.45;6.00;;;;;;;;;;1747923;28;20710;-77
2024/01/06 07:20:45;;;;;;;8.35;6.18;;;;;;;;;;1742184;28;20625;-77
2024/01/06 07:21:37;;;;;;;6.90;6.20;;;;;;;;;;1742123;28;20547;-77
2024/01/06 07:22:29;;;;;;;7.88;6.60;;;;;;;;;;1743138;28;20572;-77
2024/01/06 07:23:20;;;;;;;7.82;5.72;;;;;;;;;;1749024;28;20613;-77
2024/01/06 07:24:12;;;;;;;6.18;5.38;;;;;;;;;;1749062;28;20206;-77
2024/01/06 07:25:03;;;;;;;6.95;5.82;;;;;;;;;;1748896;28;20208;-77
2024/01/06 07:25:57;;;;;;;8.98;7.22;;;;;;;;;;1749109;28;20202;-77
2024/01/06 07:26:49;;;;;;;8.40;6.57;;;;;;;;;;1743505;28;20317;-77
2024/01/06 07:27:40;;;;;;;7.47;6.38;;;;;;;;;;1742208;28;20231;-77
2024/01/06 07:28:32;;;;;;;4.80;4.30;;;;;;;;;;1745832;28;20240;-77
2024/01/06 07:29:23;;;;;;;7.18;5.43;;;;;;;;;;1748346;28;20198;-77
2024/01/06 07:30:14;;;;;;;7.80;5.05;;;;;;;;;;1746673;28;20202;-77
2024/01/06 07:31:06;;;;;;;7.95;5.80;;;;;;;;;;1748072;28;20197;-77
2024/01/06 07:31:57;;;;;;;10.00;5.72;;;;;;;;;;1750749;28;20210;-77
2024/01/06 07:32:50;;;;;;;6.65;5.78;;;;;;;;;;1754938;28;20227;-77
2024/01/06 07:33:43;;;;;;;7.55;6.22;;;;;;;;;;1755982;28;20207;-77
2024/01/06 07:34:34;;;;;;;8.07;5.97;;;;;;;;;;1747383;28;20786;-77
2024/01/06 07:35:26;;;;;;;6.68;5.85;;;;;;;;;;1748985;28;20214;-77
2024/01/06 07:36:18;;;;;;;9.95;5.72;;;;;;;;;;1743949;28;20203;-77
2024/01/06 07:37:09;;;;;;;9.80;7.82;;;;;;;;;;1742068;28;20207;-77
2024/01/06 07:38:01;;;;;;;11.00;8.05;;;;;;;;;;1745471;28;20655;-77
2024/01/06 07:38:52;;;;;;;11.23;7.32;;;;;;;;;;1748187;28;20575;-77
2024/01/06 07:39:44;;;;;;;10.60;7.00;;;;;;;;;;1748854;28;20332;-77
2024/01/06 07:40:35;;;;;;;12.90;7.15;;;;;;;;;;1748907;28;20198;-77
2024/01/06 07:41:27;;;;;;;8.20;6.25;;;;;;;;;;1748477;28;20198;-77
2024/01/06 07:42:18;;;;;;;4.95;4.40;;;;;;;;;;1742184;28;20223;-77
2024/01/06 07:43:09;;;;;;;9.15;5.30;;;;;;;;;;1741987;28;20253;-77
2024/01/06 07:44:02;;;;;;;6.03;4.82;;;;;;;;;;1747863;28;20203;-77
2024/01/06 07:44:53;;;;;;;8.70;5.55;;;;;;;;;;1748894;28;20202;-77
2024/01/06 07:45:45;;;;;;;7.65;5.97;;;;;;;;;;1744515;28;20230;-77
2024/01/06 07:46:36;;;;;;;6.45;5.60;;;;;;;;;;1742046;28;20199;-77
2024/01/06 07:47:28;;;;;;;7.28;5.55;;;;;;;;;;1744855;28;20644;-77
2024/01/06 07:48:20;;;;;;;10.18;6.60;;;;;;;;;;1749015;28;20206;-77
2024/01/06 07:49:12;;;;;;;7.97;6.43;;;;;;;;;;1746738;28;20259;-77
2024/01/06 07:50:05;;;;;;;8.43;6.38;;;;;;;;;;1742095;28;20195;-77
2024/01/06 07:50:56;;;;;;;7.47;6.80;;;;;;;;;;1742124;28;20206;-77
2024/01/06 07:51:47;;;;;;;7.15;6.45;;;;;;;;;;1747146;28;20561;-77
2024/01/06 07:52:39;;;;;;;7.30;6.60;;;;;;;;;;1748868;28;20199;-77
2024/01/06 07:53:30;;;;;;;7.45;6.75;;;;;;;;;;1743104;28;20210;-77
2024/01/06 07:54:21;;;;;;;7.00;6.30;;;;;;;;;;1741845;28;20211;-77
2024/01/06 07:55:13;;;;;;;9.50;5.90;;;;;;;;;;1745604;28;20314;-77
2024/01/06 07:56:04;;;;;;;7.70;6.40;;;;;;;;;;1742091;28;20210;-77
2024/01/06 07:56:56;;;;;;;6.70;5.93;;;;;;;;;;1744346;28;20309;-77
2024/01/06 07:57:48;;;;;;;8.60;7.50;;;;;;;;;;1748794;28;20206;-77
2024/01/06 07:58:39;;;;;;;9.10;6.00;;;;;;;;;;1748823;28;20202;-77
2024/01/06 07:59:31;;;;;;;11.73;7.22;;;;;;;;;;1748081;28;20202;-77
2024/01/06 08:00:22;;;;;;;10.68;7.82;;;;;;;;;;1748887;28;20685;-77
2024/01/06 08:01:13;;;;;;;17.20;8.93;;;;;;;;;;1742323;28;20203;-77
2024/01/06 08:02:05;;;;;;;16.73;9.43;;;;;;;;;;1741933;28;20211;-77
2024/01/06 08:02:56;;;;;;;10.77;7.32;;;;;;;;;;1746932;28;20241;-77
2024/01/06 08:03:47;;;;;;;13.75;8.02;;;;;;;;;;1748839;28;20565;-77
2024/01/06 08:04:41;;;;;;;14.70;7.60;;;;;;;;;;1745524;28;20202;-77
2024/01/06 08:05:32;;;;;;;13.35;7.93;;;;;;;;;;1741907;28;20663;-77
2024/01/06 08:06:25;;;;;;;13.73;8.57;;;;;;;;;;1743913;28;20195;-77
2024/01/06 08:07:16;;;;;;;17.10;10.27;;;;;;;;;;1748809;28;20259;-77
2024/01/06 08:08:08;;;;;;;11.38;7.80;;;;;;;;;;1746434;28;20191;-77
2024/01/06 08:09:00;;;;;;;12.02;8.15;;;;;;;;;;1741126;28;20294;-77
2024/01/06 08:09:51;;;;;;;14.88;8.10;;;;;;;;;;1741904;28;20589;-77
2024/01/06 08:10:43;;;;;;;14.60;8.32;;;;;;;;;;1747947;28;20209;-77
2024/01/06 08:11:34;;;;;;;12.00;6.72;;;;;;;;;;1748626;28;20211;-77
2024/01/06 08:12:25;;;;;;;7.95;5.22;;;;;;;;;;1748700;28;20202;-77
2024/01/06 08:13:17;;;;;;;7.15;3.47;;;;;;;;;;1748672;28;20207;-77
2024/01/06 08:14:08;;;;;;;6.55;3.20;;;;;;;;;;1745713;28;20685;-77
2024/01/06 08:15:00;;;;;;;4.93;3.38;;;;;;;;;;1741812;28;20203;-77
2024/01/06 08:15:51;;;;;;;3.90;3.55;;;;;;;;;;1743253;28;20208;-77
2024/01/06 08:16:43;;;;;;;3.75;3.28;;;;;;;;;;1748814;28;20281;-77
2024/01/06 08:17:35;;;;;;;4.35;3.40;;;;;;;;;;1748613;28;20239;-77
2024/01/06 08:18:27;;;;;;;3.30;3.00;;;;;;;;;;1741817;28;20278;-77
2024/01/06 08:19:19;;;;;;;4.95;3.10;;;;;;;;;;1740607;28;20815;-77
2024/01/06 08:20:12;;;;;;;5.18;2.85;;;;;;;;;;1747353;28;20846;-77
2024/01/06 08:21:04;;;;;;;5.35;2.85;;;;;;;;;;1748807;28;20232;-77
2024/01/06 08:21:56;;;;;;;4.38;3.22;;;;;;;;;;1744166;28;20223;-77
2024/01/06 08:22:47;;;;;;;2.95;2.60;;;;;;;;;;1741886;28;20694;-77
2024/01/06 08:23:39;;;;;;;3.75;2.42;;;;;;;;;;1744512;28;20199;-77
2024/01/06 08:24:30;;;;;;;5.22;2.60;;;;;;;;;;1746821;28;20199;-77
2024/01/06 08:25:22;;;;;;;3.92;2.53;;;;;;;;;;1747709;28;20209;-77
2024/01/06 08:26:13;;;;;;;3.80;2.40;;;;;;;;;;1742051;28;20690;-77
2024/01/06 08:27:04;;;;;;;3.80;3.10;;;;;;;;;;1741834;28;20198;-77
2024/01/06 08:27:57;;;;;;;5.82;3.20;;;;;;;;;;1748505;28;20215;-77
2024/01/06 08:28:48;;;;;;;3.60;2.60;;;;;;;;;;1748240;28;20285;-77
2024/01/06 08:29:40;;;;;;;5.82;2.15;;;;;;;;;;1748386;28;20202;-77
2024/01/06 08:30:31;;;;;;;4.45;2.38;;;;;;;;;;1748694;28;20210;-77
2024/01/06 08:31:23;;;;;;;3.80;3.40;;;;;;;;;;1744967;28;20199;-77
2024/01/06 08:32:14;;;;;;;3.53;2.40;;;;;;;;;;1741702;28;20649;-77
2024/01/06 08:33:06;;;;;;;5.57;2.88;;;;;;;;;;1743854;28;20223;-77
2024/01/06 08:33:58;;;;;;;3.67;2.70;;;;;;;;;;1748543;28;20233;-77
2024/01/06 08:34:49;;;;;;;3.15;2.63;;;;;;;;;;1747834;28;20209;-77
2024/01/06 08:35:41;;;;;;;6.05;3.20;;;;;;;;;;1741924;28;20203;-77
2024/01/06 08:36:33;;;;;;;7.13;2.95;;;;;;;;;;1741636;28;20207;-77
2024/01/06 08:37:24;;;;;;;6.05;2.95;;;;;;;;;;1748089;28;20207;-77
2024/01/06 08:38:15;;;;;;;4.63;2.90;;;;;;;;;;1748603;28;20207;-77
2024/01/06 08:39:08;;;;;;;3.40;2.60;;;;;;;;;;1743197;28;20608;-77
2024/01/06 08:39:59;;;;;;;4.25;2.35;;;;;;;;;;1741597;28;20242;-77
2024/01/06 08:40:51;;;;;;;2.85;2.53;;;;;;;;;;1744883;28;20211;-77
2024/01/06 08:41:43;;;;;;;4.50;2.40;;;;;;;;;;1743736;28;20196;-77
2024/01/06 08:42:34;;;;;;;5.72;2.55;;;;;;;;;;1744374;28;20199;-77
2024/01/06 08:43:25;;;;;;;5.20;2.70;;;;;;;;;;1745601;28;20210;-77
2024/01/06 08:44:17;;;;;;;6.60;2.95;;;;;;;;;;1745664;28;20198;-77
2024/01/06 08:45:09;;;;;;;3.40;2.75;;;;;;;;;;1745162;28;20275;-77
2024/01/06 08:46:00;;;;;;;4.40;2.83;;;;;;;;;;1745035;28;20245;-78
2024/01/06 08:46:52;;;;;;;4.75;2.85;;;;;;;;;;1745774;28;20191;-77
2024/01/06 08:47:43;;;;;;;2.70;2.30;;;;;;;;;;1745472;28;20199;-77
2024/01/06 08:48:34;;;;;;;2.30;2.08;;;;;;;;;;1745775;28;20195;-77
2024/01/06 08:49:26;;;;;;;3.20;2.60;;;;;;;;;;1743965;28;20191;-77
2024/01/06 08:50:17;;;;;;;3.22;2.40;;;;;;;;;;1744310;28;20199;-75
2024/01/06 08:51:10;;;;;;;5.53;2.15;;;;;;;;;;1745622;28;20230;-76
2024/01/06 08:52:02;;;;;;;3.63;2.28;;;;;;;;;;1744796;28;20218;-76
2024/01/06 08:52:53;;;;;;;2.40;1.95;;;;;;;;;;1745525;28;20192;-77
2024/01/06 08:53:46;;;;;;;3.97;2.22;;;;;;;;;;1744438;28;20195;-77
2024/01/06 08:54:37;;;;;;;2.45;1.80;;;;;;;;;;1744091;28;20210;-76
2024/01/06 08:55:28;;;;;;;2.47;1.73;;;;;;;;;;1745636;28;20245;-77
2024/01/06 08:56:20;;;;;;;4.57;1.80;;;;;;;;;;1745106;28;20225;-77
2024/01/06 08:57:11;;;;;;;2.20;1.73;;;;;;;;;;1744125;28;20209;-76
2024/01/06 08:58:02;;;;;;;4.72;1.80;;;;;;;;;;1746351;28;20194;-77
2024/01/06 08:58:54;;;;;;;4.05;1.85;;;;;;;;;;1744753;28;20183;-77
2024/01/06 08:59:46;;;;;;;2.85;1.90;;;;;;;;;;1744558;28;20198;-77
2024/01/06 09:00:38;;;;;;;3.40;2.15;;;;;;;;;;1745408;28;20211;-77
2024/01/06 09:01:29;;;;;;;2.00;1.80;;;;;;;;;;1744170;28;20706;-76
2024/01/06 09:02:21;;;;;;;5.07;1.85;;;;;;;;;;1744411;28;20218;-76
2024/01/06 09:03:12;;;;;;;3.92;2.85;;;;;;;;;;1745437;28;20245;-77
2024/01/06 09:04:03;;;;;;;3.35;1.65;;;;;;;;;;1744510;28;20191;-76
2024/01/06 09:04:55;;;;;;;3.20;1.90;;;;;;;;;;1744008;28;20191;-77
2024/01/06 09:05:46;;;;;;;5.40;1.90;;;;;;;;;;1746289;28;20206;-76
2024/01/06 09:06:39;;;;;;;2.17;1.73;;;;;;;;;;1744247;28;20211;-77
2024/01/06 09:07:31;;;;;;;4.03;1.90;;;;;;;;;;1745391;28;20579;-77
2024/01/06 09:08:23;;;;;;;2.42;1.95;;;;;;;;;;1744730;28;20199;-77
2024/01/06 09:09:15;;;;;;;3.17;1.50;;;;;;;;;;1743327;28;20218;-76
2024/01/06 09:10:07;;;;;;;2.72;1.95;;;;;;;;;;1745256;28;20191;-76
2024/01/06 09:11:00;;;;;;;2.60;1.58;;;;;;;;;;1745095;28;20195;-77
2024/01/06 09:11:52;;;;;;;7.80;2.50;;;;;;;;;;1745297;28;20195;-76
2024/01/06 09:12:44;;;;;;;7.03;2.22;;;;;;;;;;1744553;28;20183;-77
2024/01/06 09:13:35;;;;;;;2.97;2.00;;;;;;;;;;1743984;28;20210;-77
2024/01/06 09:14:26;;;;;;;13.25;2.95;;;;;;;;;;1745183;28;20203;-77
2024/01/06 09:15:18;;;;;;;2.80;1.67;;;;;;;;;;1743649;28;20250;-76
2024/01/06 09:16:10;;;;;;;2.33;1.90;;;;;;;;;;1745324;28;20203;-77
2024/01/06 09:17:01;;;;;;;1.50;1.40;;;;;;;;;;1742774;28;20197;-77
2024/01/06 09:17:53;;;;;;;2.85;1.65;;;;;;;;;;1745344;28;20257;-76
2024/01/06 09:18:44;;;;;;;2.20;1.20;;;;;;;;;;1744769;28;20722;-77
2024/01/06 09:19:35;;;;;;;1.60;1.50;;;;;;;;;;1745166;28;20655;-77
2024/01/06 09:20:29;;;;;;;1.52;1.33;;;;;;;;;;1743976;28;20612;-76
2024/01/06 09:21:20;;;;;;;2.65;1.65;;;;;;;;;;1744301;28;20226;-77
2024/01/06 09:22:13;;;;;;;2.60;1.35;;;;;;;;;;1745317;28;20218;-77
2024/01/06 09:23:05;;;;;;;2.28;1.50;;;;;;;;;;1744362;28;20255;-77
2024/01/06 09:23:56;;;;;;;2.80;2.00;;;;;;;;;;1743900;28;20202;-77
2024/01/06 09:24:48;;;;;;;2.47;1.35;;;;;;;;;;1746433;28;20206;-77
2024/01/06 09:25:39;;;;;;;6.18;1.73;;;;;;;;;;1744144;28;20198;-77
2024/01/06 09:26:31;;;;;;;3.45;1.50;;;;;;;;;;1745241;28;20203;-76
2024/01/06 09:27:23;;;;;;;4.53;1.70;;;;;;;;;;1744702;28;20679;-77
2024/01/06 09:28:14;;;;;;;1.80;1.70;;;;;;;;;;1743886;28;20198;-76
2024/01/06 09:29:05;;;;;;;1.90;1.70;;;;;;;;;;1744180;28;20187;-77
2024/01/06 09:29:57;;;;;;;4.00;1.60;;;;;;;;;;1745287;28;20197;-76
2024/01/06 09:30:48;;;;;;;2.95;1.52;;;;;;;;;;1742999;28;20645;-76
2024/01/06 09:31:40;;;;;;;3.20;1.70;;;;;;;;;;1744008;28;20197;-77
2024/01/06 09:32:32;;;;;;;2.47;1.35;;;;;;;;;;1743863;28;20203;-76
2024/01/06 09:33:24;;;;;;;3.17;2.25;;;;;;;;;;1744427;28;20643;-76
2024/01/06 09:34:15;;;;;;;4.10;1.90;;;;;;;;;;1744929;28;20199;-76
2024/01/06 09:35:06;;;;;;;2.70;1.70;;;;;;;;;;1743900;28;20186;-77
2024/01/06 09:35:58;;;;;;;1.77;1.60;;;;;;;;;;1743857;28;20199;-77
2024/01/06 09:36:49;;;;;;;3.60;1.73;;;;;;;;;;1745401;28;20746;-76
2024/01/06 09:37:42;;;;;;;3.60;1.80;;;;;;;;;;1744997;28;20629;-77
2024/01/06 09:38:34;;;;;;;3.20;1.63;;;;;;;;;;1745276;28;20199;-76
2024/01/06 09:39:25;;;;;;;2.00;1.60;;;;;;;;;;1743409;28;20194;-77
2024/01/06 09:40:22;;;;;;;1.60;1.50;;;;;;;;;;1743795;28;20233;-77
2024/01/06 09:41:13;;;;;;;1.90;1.70;;;;;;;;;;1743845;28;20198;-77
2024/01/06 09:42:05;;;;;;;2.17;1.48;;;;;;;;;;1744225;28;21706;-77
2024/01/06 09:42:56;;;;;;;2.88;1.80;;;;;;;;;;1746837;28;20194;-76
2024/01/06 09:43:48;;;;;;;2.10;1.88;;;;;;;;;;1752911;28;20204;-76
2024/01/06 09:44:40;;;;;;;1.90;1.60;;;;;;;;;;1752226;28;20199;-76
2024/01/06 09:45:31;;;;;;;2.55;1.70;;;;;;;;;;1749020;28;20202;-77
2024/01/06 09:46:24;;;;;;;2.20;1.65;;;;;;;;;;1749747;28;20189;-77
2024/01/06 09:47:19;;;;;;;7.45;2.03;;;;;;;;;;1745709;28;20312;-76
2024/01/06 09:48:11;;;;;;;1.92;1.70;;;;;;;;;;1743064;28;20675;-77
2024/01/06 09:49:03;;;;;;;1.40;1.30;;;;;;;;;;1741503;28;20270;-77
2024/01/06 09:49:56;;;;;;;2.25;1.60;;;;;;;;;;1745216;28;20195;-77
2024/01/06 09:50:48;;;;;;;1.70;1.40;;;;;;;;;;1743951;28;20198;-77
2024/01/06 09:51:41;;;;;;;2.40;1.80;;;;;;;;;;1744662;28;20220;-77
2024/01/06 09:52:33;;;;;;;2.67;1.70;;;;;;;;;;1747923;28;20214;-77
2024/01/06 09:53:29;;;;;;;2.95;1.80;;;;;;;;;;1747013;28;20213;-76
2024/01/06 09:54:24;;;;;;;2.53;1.52;;;;;;;;;;1744843;28;20202;-77
2024/01/06 09:55:16;;;;;;;2.28;1.42;;;;;;;;;;1746632;28;20294;-76
2024/01/06 09:56:08;;;;;;;1.85;1.75;;;;;;;;;;1748990;28;21006;-76
2024/01/06 09:57:00;;;;;;;1.92;1.55;;;;;;;;;;1745759;28;20762;-77
2024/01/06 09:57:51;;;;;;;2.25;2.05;;;;;;;;;;1749508;28;20190;-77
2024/01/06 09:58:44;;;;;;;3.33;2.13;;;;;;;;;;1743883;28;20282;-77
2024/01/06 09:59:36;;;;;;;5.78;2.35;;;;;;;;;;1748577;28;20678;-77
2024/01/06 10:00:29;;;;;;;2.20;2.00;;;;;;;;;;1745993;28;20198;-77
2024/01/06 10:01:20;;;;;;;2.10;1.90;;;;;;;;;;1748369;28;20206;-76
2024/01/06 10:02:14;;;;;;;2.42;1.80;;;;;;;;;;1744978;28;20222;-77
2024/01/06 10:03:07;;;;;;;3.35;1.98;;;;;;;;;;1743593;28;20194;-77
2024/01/06 10:03:59;;;;;;;2.05;1.85;;;;;;;;;;1744778;28;20699;-76
2024/01/06 10:04:51;;;;;;;3.30;2.22;;;;;;;;;;1745044;28;20219;-77
2024/01/06 10:05:43;;;;;;;4.03;2.92;;;;;;;;;;1743850;28;20228;-77
2024/01/06 10:06:34;;;;;;;4.55;2.95;;;;;;;;;;1746313;28;20728;-77
2024/01/06 10:07:26;;;;;;;3.70;2.92;;;;;;;;;;1743732;28;20677;-77
2024/01/06 10:08:18;;;;;;;2.30;2.10;;;;;;;;;;1743752;28;20621;-77
2024/01/06 10:09:11;;;;;;;2.40;1.80;;;;;;;;;;1744479;28;20578;-77
2024/01/06 10:10:02;;;;;;;2.38;2.10;;;;;;;;;;1744681;28;20195;-77
2024/01/06 10:10:54;;;;;;;3.15;1.90;;;;;;;;;;1744037;28;20724;-77
2024/01/06 10:11:45;;;;;;;1.52;1.40;;;;;;;;;;1745052;28;20578;-76
2024/01/06 10:12:38;;;;;;;3.53;1.98;;;;;;;;;;1744214;28;20340;-76
2024/01/06 10:13:30;;;;;;;2.25;1.33;;;;;;;;;;1743761;28;20206;-77
2024/01/06 10:14:21;;;;;;;1.45;1.35;;;;;;;;;;1741338;28;20211;-76
2024/01/06 10:15:13;;;;;;;2.05;1.40;;;;;;;;;;1743942;28;20193;-77
2024/01/06 10:16:05;;;;;;;1.70;1.20;;;;;;;;;;1745126;28;20199;-76
2024/01/06 10:16:56;;;;;;;1.90;1.70;;;;;;;;;;1744386;28;20251;-77
2024/01/06 10:17:49;;;;;;;4.68;1.90;;;;;;;;;;1743516;28;20305;-77
2024/01/06 10:18:41;;;;;;;1.70;1.60;;;;;;;;;;1744926;28;20280;-76
2024/01/06 10:19:32;;;;;;;1.55;1.45;;;;;;;;;;1743319;28;20593;-77
2024/01/06 10:20:24;;;;;;;2.40;2.20;;;;;;;;;;1744140;28;20539;-77
2024/01/06 10:21:17;;;;;;;2.40;1.80;;;;;;;;;;1744165;28;20199;-77
2024/01/06 10:22:08;;;;;;;1.80;1.63;;;;;;;;;;1741682;28;20226;-76
2024/01/06 10:23:06;;;;;;;1.73;1.55;;;;;;;;;;1744774;28;20620;-77
2024/01/06 10:23:57;;;;;;;3.22;1.80;;;;;;;;;;1744157;28;20260;-77
2024/01/06 10:24:50;;;;;;;2.28;1.80;;;;;;;;;;1743556;28;20222;-77
2024/01/06 10:25:42;;;;;;;1.73;1.50;;;;;;;;;;1742601;28;20199;-77
2024/01/06 10:26:33;;;;;;;2.17;1.63;;;;;;;;;;1744691;28;20191;-77
2024/01/06 10:27:25;;;;;;;1.95;1.48;;;;;;;;;;1744990;28;20194;-77
2024/01/06 10:28:16;;;;;;;1.70;1.55;;;;;;;;;;1744225;28;20206;-77
2024/01/06 10:29:08;;;;;;;2.55;1.63;;;;;;;;;;1742864;28;20827;-76
2024/01/06 10:30:00;;;;;;;2.10;1.65;;;;;;;;;;1744804;28;20202;-77
2024/01/06 10:30:52;;;;;;;2.03;1.60;;;;;;;;;;1745042;28;20192;-77
2024/01/06 10:31:44;;;;;;;1.85;1.70;;;;;;;;;;1742921;28;20203;-77
2024/01/06 10:32:36;;;;;;;1.65;1.25;;;;;;;;;;1744255;28;20199;-77
2024/01/06 10:33:28;;;;;;;2.10;1.70;;;;;;;;;;1745484;28;20199;-77
2024/01/06 10:34:19;;;;;;;2.28;1.95;;;;;;;;;;1743738;28;20202;-78
2024/01/06 10:35:11;;;;;;;2.35;2.15;;;;;;;;;;1745391;28;20199;-77
2024/01/06 10:36:04;;;;;;;1.75;1.50;;;;;;;;;;1743636;28;20572;-77
2024/01/06 10:36:55;;;;;;;2.47;2.30;;;;;;;;;;1744004;28;20237;-77
2024/01/06 10:37:49;;;;;;;2.30;2.00;;;;;;;;;;1745006;28;20245;-77
2024/01/06 10:38:41;;;;;;;2.10;1.90;;;;;;;;;;1743284;28;20306;-75
2024/01/06 10:39:32;;;;;;;2.63;1.83;;;;;;;;;;1745565;28;20217;-75
2024/01/06 10:40:26;;;;;;;3.85;2.00;;;;;;;;;;1744898;28;20201;-75
2024/01/06 10:41:18;;;;;;;1.52;1.42;;;;;;;;;;1744390;28;20210;-75
2024/01/06 10:42:09;;;;;;;1.75;1.65;;;;;;;;;;1745351;28;20207;-75
2024/01/06 10:43:02;;;;;;;2.63;2.25;;;;;;;;;;1744951;28;20194;-76
2024/01/06 10:43:53;;;;;;;1.80;1.65;;;;;;;;;;1746392;28;20197;-75
2024/01/06 10:44:46;;;;;;;1.70;1.60;;;;;;;;;;1746368;28;20195;-75
2024/01/06 10:45:37;;;;;;;2.95;1.67;;;;;;;;;;1745570;28;20593;-76
2024/01/06 10:46:28;;;;;;;1.45;1.35;;;;;;;;;;1745457;28;20202;-76
2024/01/06 10:47:21;;;;;;;1.63;1.50;;;;;;;;;;1745012;28;20654;-76
2024/01/06 10:48:13;;;;;;;2.20;1.40;;;;;;;;;;1744820;28;20195;-76
2024/01/06 10:49:08;;;;;;;1.58;1.42;;;;;;;;;;1744803;28;20191;-76
2024/01/06 10:50:00;;;;;;;2.15;1.95;;;;;;;;;;1746376;28;20581;-76
2024/01/06 10:50:53;;;;;;;2.25;1.77;;;;;;;;;;1743647;28;20190;-75
2024/01/06 10:51:46;;;;;;;2.05;1.83;;;;;;;;;;1747552;28;20655;-75
2024/01/06 10:52:38;;;;;;;1.60;1.50;;;;;;;;;;1745379;28;20199;-76
2024/01/06 10:53:30;;;;;;;1.48;1.38;;;;;;;;;;1744312;28;20667;-77
2024/01/06 10:54:22;;;;;;;1.80;1.70;;;;;;;;;;1741521;28;20276;-77
2024/01/06 10:55:17;;;;;;;1.40;1.30;;;;;;;;;;1748796;28;20194;-78
2024/01/06 10:56:11;;;;;;;1.83;1.73;;;;;;;;;;1746276;28;20210;-77
2024/01/06 10:57:03;;;;;;;1.85;1.75;;;;;;;;;;1742405;28;20310;-77
2024/01/06 10:57:55;;;;;;;5.93;5.32;;;;;;;;;;1744742;28;20202;-77
2024/01/06 10:58:49;;;;;;;2.60;2.40;;;;;;;;;;1749089;28;20231;-77
2024/01/06 10:59:41;;;;;;;1.75;1.65;;;;;;;;;;1748449;28;20202;-77
2024/01/06 11:00:33;;;;;;;1.85;1.60;;;;;;;;;;1742400;28;20202;-76
2024/01/06 11:01:24;;;;;;;2.42;1.58;;;;;;;;;;1746365;28;20203;-76
2024/01/06 11:02:16;;;;;;;1.48;1.38;;;;;;;;;;1748197;28;20627;-76
2024/01/06 11:03:08;;;;;;;3.03;1.90;;;;;;;;;;1747814;28;20205;-77
2024/01/06 11:04:00;;;;;;;1.77;1.67;;;;;;;;;;1744517;28;20248;-76
2024/01/06 11:04:51;;;;;;;1.70;1.40;;;;;;;;;;1749143;28;20243;-76
2024/01/06 11:05:44;;;;;;;1.73;1.63;;;;;;;;;;1745162;28;20199;-76
2024/01/06 11:06:35;;;;;;;1.60;1.50;;;;;;;;;;1745153;28;20209;-76
2024/01/06 11:07:28;;;;;;;1.63;1.20;;;;;;;;;;1745882;28;20199;-77
2024/01/06 11:08:20;;;;;;;1.85;1.65;;;;;;;;;;1746376;28;20686;-77
2024/01/06 11:09:15;;;;;;;2.10;1.90;;;;;;;;;;1744714;28;20379;-77
2024/01/06 11:10:09;;;;;;;2.60;1.30;;;;;;;;;;1746154;28;20198;-77
2024/01/06 11:11:02;;;;;;;2.95;1.50;;;;;;;;;;1748793;28;20256;-77